createdAt,value
2018-08-28T00:00:44.290Z,82.6
2018-08-28T00:01:45.012Z,82.4
2018-08-28T00:02:45.727Z,82.6
2018-08-28T00:03:46.402Z,82.9
2018-08-28T00:04:47.078Z,83.0
2018-08-28T00:05:47.749Z,83.0
2018-08-28T00:06:48.424Z,83.2
2018-08-28T00:07:49.098Z,83.0
2018-08-28T00:08:49.774Z,83.4
2018-08-28T00:09:50.448Z,83.3
2018-08-28T00:10:51.123Z,83.2
2018-08-28T00:11:51.797Z,83.0
2018-08-28T00:12:52.471Z,83.3
2018-08-28T00:13:53.147Z,83.2
2018-08-28T00:14:53.821Z,83.0
2018-08-28T00:15:54.497Z,83.5
2018-08-28T00:16:55.198Z,83.4
2018-08-28T00:17:55.844Z,83.4
2018-08-28T00:18:56.520Z,83.1
2018-08-28T00:19:57.194Z,83.1
2018-08-28T00:20:57.870Z,83.5
2018-08-28T00:21:58.544Z,83.6
2018-08-28T00:22:59.262Z,83.5
2018-08-28T00:23:59.989Z,83.2
2018-08-28T00:25:00.658Z,83.3
2018-08-28T00:26:01.332Z,83.2
2018-08-28T00:27:02.010Z,83.4
2018-08-28T00:28:02.736Z,83.4
2018-08-28T00:29:03.419Z,83.2
2018-08-28T00:30:04.141Z,83.3
2018-08-28T00:31:04.830Z,83.5
2018-08-28T00:32:05.515Z,83.4
2018-08-28T00:33:06.196Z,83.2
2018-08-28T00:34:06.880Z,83.6
2018-08-28T00:35:07.606Z,83.5
2018-08-28T00:36:08.293Z,83.5
2018-08-28T00:37:08.977Z,83.4
2018-08-28T00:38:09.658Z,83.6
2018-08-28T00:39:10.344Z,83.5
2018-08-28T00:40:11.024Z,83.5
2018-08-28T00:41:11.708Z,83.3
2018-08-28T00:42:12.390Z,83.6
2018-08-28T00:43:13.073Z,83.4
2018-08-28T00:44:13.755Z,83.5
2018-08-28T00:45:14.442Z,83.6
2018-08-28T00:46:15.176Z,83.5
2018-08-28T00:47:15.861Z,83.3
2018-08-28T00:48:16.546Z,83.3
2018-08-28T00:49:17.230Z,83.6
2018-08-28T00:50:17.913Z,83.2
2018-08-28T00:51:18.597Z,83.9
2018-08-28T00:52:19.329Z,83.7
2018-08-28T00:53:20.007Z,84.2
2018-08-28T00:54:20.692Z,83.7
2018-08-28T00:55:21.376Z,84.1
2018-08-28T00:56:22.060Z,84.0
2018-08-28T00:57:22.743Z,84.3
2018-08-28T00:58:23.425Z,84.2
2018-08-28T00:59:24.113Z,84.1
2018-08-28T01:00:24.847Z,84.3
2018-08-28T01:01:25.533Z,84.1
2018-08-28T01:02:26.212Z,84.5
2018-08-28T01:03:26.896Z,84.5
2018-08-28T01:04:27.579Z,85.0
2018-08-28T01:05:28.316Z,85.1
2018-08-28T01:06:28.999Z,85.0
2018-08-28T01:07:29.682Z,85.5
2018-08-28T01:08:30.364Z,85.6
2018-08-28T01:09:31.045Z,85.7
2018-08-28T01:10:31.730Z,85.6
2018-08-28T01:11:32.414Z,86.3
2018-08-28T01:12:33.149Z,86.1
2018-08-28T01:13:33.833Z,86.1
2018-08-28T01:14:34.605Z,86.1
2018-08-28T01:15:35.251Z,86.4
2018-08-28T01:16:35.936Z,86.3
2018-08-28T01:17:36.622Z,86.3
2018-08-28T01:18:37.309Z,86.2
2018-08-28T01:19:37.985Z,86.3
2018-08-28T01:20:38.666Z,86.2
2018-08-28T01:21:39.353Z,86.3
2018-08-28T01:22:40.035Z,86.2
2018-08-28T01:23:40.720Z,86.1
2018-08-28T01:24:41.404Z,86.5
2018-08-28T01:25:42.088Z,86.2
2018-08-28T01:26:42.768Z,86.1
2018-08-28T01:27:43.451Z,85.5
2018-08-28T01:28:44.187Z,85.4
2018-08-28T01:29:44.869Z,85.5
2018-08-28T01:30:45.554Z,84.8
2018-08-28T01:31:46.238Z,84.7
2018-08-28T01:32:46.921Z,84.6
2018-08-28T01:33:47.604Z,84.0
2018-08-28T01:34:48.291Z,83.6
2018-08-28T01:35:48.974Z,83.5
2018-08-28T01:36:49.656Z,83.2
2018-08-28T01:37:50.338Z,83.1
2018-08-28T01:38:51.021Z,81.8
2018-08-28T01:39:51.702Z,81.6
2018-08-28T01:40:52.385Z,80.7
2018-08-28T01:41:53.069Z,80.2
2018-08-28T01:42:53.751Z,79.2
2018-08-28T01:43:54.435Z,79.1
2018-08-28T01:44:55.161Z,79.0
2018-08-28T01:45:55.838Z,78.5
2018-08-28T01:46:56.513Z,78.6
2018-08-28T01:47:57.186Z,78.9
2018-08-28T01:48:57.860Z,78.5
2018-08-28T01:49:58.533Z,78.3
2018-08-28T01:50:59.208Z,78.2
2018-08-28T01:51:59.886Z,78.6
2018-08-28T01:53:00.557Z,78.3
2018-08-28T01:54:01.231Z,78.1
2018-08-28T01:55:01.905Z,77.8
2018-08-28T01:56:02.583Z,77.5
2018-08-28T01:57:03.301Z,77.8
2018-08-28T01:58:03.976Z,77.1
2018-08-28T01:59:04.652Z,77.2
2018-08-28T02:00:05.327Z,76.9
2018-08-28T02:01:06.001Z,76.8
2018-08-28T02:02:06.676Z,76.8
2018-08-28T02:03:07.352Z,76.7
2018-08-28T02:04:08.068Z,75.7
2018-08-28T02:05:08.788Z,76.0
2018-08-28T02:06:09.463Z,75.2
2018-08-28T02:07:10.138Z,75.2
2018-08-28T02:08:10.811Z,75.2
2018-08-28T02:09:11.487Z,75.0
2018-08-28T02:10:12.160Z,74.5
2018-08-28T02:11:12.835Z,74.1
2018-08-28T02:12:13.513Z,74.4
2018-08-28T02:13:14.211Z,73.8
2018-08-28T02:14:14.860Z,74.2
2018-08-28T02:15:15.534Z,74.1
2018-08-28T02:16:16.212Z,74.1
2018-08-28T02:17:16.882Z,74.4
2018-08-28T02:18:17.599Z,73.9
2018-08-28T02:19:18.275Z,74.0
2018-08-28T02:20:18.949Z,74.1
2018-08-28T02:21:19.625Z,73.6
2018-08-28T02:22:20.298Z,73.7
2018-08-28T02:23:20.971Z,73.6
2018-08-28T02:24:21.646Z,73.4
2018-08-28T02:25:22.320Z,73.8
2018-08-28T02:26:22.995Z,73.5
2018-08-28T02:27:23.668Z,73.4
2018-08-28T02:28:24.343Z,73.5
2018-08-28T02:29:25.019Z,73.3
2018-08-28T02:30:25.694Z,73.5
2018-08-28T02:31:26.372Z,72.9
2018-08-28T02:32:27.044Z,73.4
2018-08-28T02:33:27.782Z,73.6
2018-08-28T02:34:28.438Z,73.5
2018-08-28T02:35:29.119Z,73.5
2018-08-28T02:36:29.786Z,73.8
2018-08-28T02:37:30.460Z,72.8
2018-08-28T02:38:31.135Z,73.8
2018-08-28T02:39:31.812Z,73.6
2018-08-28T02:40:32.486Z,73.4
2018-08-28T02:41:33.161Z,73.4
2018-08-28T02:42:33.833Z,73.8
2018-08-28T02:43:34.509Z,73.4
2018-08-28T02:44:35.183Z,73.6
2018-08-28T02:45:35.863Z,74.1
2018-08-28T02:46:36.532Z,74.1
2018-08-28T02:47:37.207Z,74.2
2018-08-28T02:48:37.879Z,74.1
2018-08-28T02:49:38.552Z,74.5
2018-08-28T02:50:39.229Z,74.4
2018-08-28T02:51:39.900Z,74.4
2018-08-28T02:52:40.575Z,74.3
2018-08-28T02:53:41.252Z,74.4
2018-08-28T02:54:41.926Z,74.4
2018-08-28T02:55:42.600Z,74.5
2018-08-28T02:56:43.274Z,74.6
2018-08-28T02:57:43.997Z,74.6
2018-08-28T02:58:44.675Z,74.6
2018-08-28T02:59:45.382Z,74.5
2018-08-28T03:00:46.069Z,74.8
2018-08-28T03:01:46.740Z,74.7
2018-08-28T03:02:47.432Z,74.7
2018-08-28T03:03:48.089Z,74.5
2018-08-28T03:04:48.766Z,74.7
2018-08-28T03:05:49.440Z,74.3
2018-08-28T03:06:50.115Z,74.4
2018-08-28T03:07:50.793Z,74.5
2018-08-28T03:08:51.511Z,74.5
2018-08-28T03:09:52.186Z,74.4
2018-08-28T03:10:52.860Z,74.6
2018-08-28T03:11:53.536Z,74.7
2018-08-28T03:12:54.210Z,74.6
2018-08-28T03:13:54.888Z,74.8
2018-08-28T03:14:55.559Z,74.4
2018-08-28T03:15:56.288Z,74.3
2018-08-28T03:16:56.910Z,74.4
2018-08-28T03:17:57.585Z,74.6
2018-08-28T03:18:58.266Z,74.3
2018-08-28T03:19:59.054Z,74.4
2018-08-28T03:20:59.668Z,74.4
2018-08-28T03:22:00.344Z,74.4
2018-08-28T03:23:01.053Z,74.5
2018-08-28T03:24:01.741Z,74.1
2018-08-28T03:25:02.459Z,74.4
2018-08-28T03:26:03.133Z,74.6
2018-08-28T03:27:03.807Z,74.6
2018-08-28T03:28:04.484Z,74.9
2018-08-28T03:29:05.191Z,74.6
2018-08-28T03:30:05.868Z,74.7
2018-08-28T03:31:06.544Z,75.0
2018-08-28T03:32:07.217Z,75.0
2018-08-28T03:33:07.892Z,74.7
2018-08-28T03:34:08.569Z,74.9
2018-08-28T03:35:09.288Z,74.8
2018-08-28T03:36:09.962Z,74.9
2018-08-28T03:37:10.638Z,74.7
2018-08-28T03:38:11.312Z,74.7
2018-08-28T03:39:11.986Z,74.9
2018-08-28T03:40:12.660Z,74.7
2018-08-28T03:41:13.333Z,74.7
2018-08-28T03:42:14.008Z,74.8
2018-08-28T03:43:14.731Z,74.9
2018-08-28T03:44:15.403Z,75.0
2018-08-28T03:45:16.079Z,75.0
2018-08-28T03:46:16.752Z,75.0
2018-08-28T03:47:17.427Z,74.8
2018-08-28T03:48:18.101Z,74.5
2018-08-28T03:49:18.776Z,74.5
2018-08-28T03:50:19.451Z,74.7
2018-08-28T03:51:20.125Z,74.7
2018-08-28T03:52:20.800Z,74.7
2018-08-28T03:53:21.475Z,74.9
2018-08-28T03:54:22.149Z,74.7
2018-08-28T03:55:22.868Z,74.7
2018-08-28T03:56:23.497Z,74.6
2018-08-28T03:57:24.173Z,74.6
2018-08-28T03:58:24.847Z,74.7
2018-08-28T03:59:25.521Z,74.7
2018-08-28T04:00:26.194Z,74.7
2018-08-28T04:01:26.913Z,75.0
2018-08-28T04:02:27.581Z,75.0
2018-08-28T04:03:28.257Z,74.9
2018-08-28T04:04:28.930Z,74.7
2018-08-28T04:05:29.605Z,74.9
2018-08-28T04:06:30.279Z,75.0
2018-08-28T04:07:30.957Z,75.1
2018-08-28T04:08:31.631Z,74.9
2018-08-28T04:09:32.352Z,74.9
2018-08-28T04:10:33.030Z,74.6
2018-08-28T04:11:33.700Z,74.7
2018-08-28T04:12:34.378Z,74.7
2018-08-28T04:13:35.055Z,74.4
2018-08-28T04:14:35.728Z,73.8
2018-08-28T04:15:36.402Z,74.3
2018-08-28T04:16:37.078Z,74.5
2018-08-28T04:17:37.814Z,74.4
2018-08-28T04:18:38.468Z,74.4
2018-08-28T04:19:39.141Z,74.3
2018-08-28T04:20:39.816Z,74.3
2018-08-28T04:21:40.493Z,74.2
2018-08-28T04:22:41.223Z,74.0
2018-08-28T04:23:41.845Z,73.9
2018-08-28T04:24:42.518Z,73.9
2018-08-28T04:25:43.196Z,73.8
2018-08-28T04:26:43.872Z,74.2
2018-08-28T04:27:44.548Z,74.1
2018-08-28T04:28:45.223Z,74.1
2018-08-28T04:29:45.898Z,74.2
2018-08-28T04:30:46.614Z,74.2
2018-08-28T04:31:47.252Z,74.1
2018-08-28T04:32:47.929Z,74.0
2018-08-28T04:33:48.608Z,73.7
2018-08-28T04:34:49.282Z,74.2
2018-08-28T04:35:49.959Z,73.9
2018-08-28T04:36:50.634Z,74.0
2018-08-28T04:37:51.313Z,74.1
2018-08-28T04:38:51.988Z,74.0
2018-08-28T04:39:52.665Z,74.0
2018-08-28T04:40:53.341Z,73.7
2018-08-28T04:41:54.056Z,74.2
2018-08-28T04:42:54.696Z,74.0
2018-08-28T04:43:55.372Z,74.2
2018-08-28T04:44:56.049Z,74.1
2018-08-28T04:45:56.728Z,74.1
2018-08-28T04:46:57.406Z,73.9
2018-08-28T04:47:58.083Z,74.2
2018-08-28T04:48:58.803Z,73.9
2018-08-28T04:49:59.477Z,73.9
2018-08-28T04:51:00.155Z,74.3
2018-08-28T04:52:00.831Z,74.4
2018-08-28T04:53:01.509Z,74.1
2018-08-28T04:54:02.197Z,74.1
2018-08-28T04:55:03.015Z,74.1
2018-08-28T04:56:03.625Z,74.4
2018-08-28T04:57:04.305Z,74.3
2018-08-28T04:58:04.984Z,74.0
2018-08-28T04:59:05.664Z,73.9
2018-08-28T05:00:06.338Z,73.9
2018-08-28T05:01:07.017Z,73.7
2018-08-28T05:02:07.695Z,73.7
2018-08-28T05:03:08.372Z,73.7
2018-08-28T05:04:09.052Z,73.6
2018-08-28T05:05:09.731Z,73.7
2018-08-28T05:06:10.409Z,73.7
2018-08-28T05:07:11.084Z,73.7
2018-08-28T05:08:11.763Z,73.3
2018-08-28T05:09:12.447Z,73.4
2018-08-28T05:10:13.117Z,73.5
2018-08-28T05:11:13.798Z,73.5
2018-08-28T05:12:14.477Z,73.4
2018-08-28T05:13:15.157Z,72.7
2018-08-28T05:14:15.834Z,72.8
2018-08-28T05:15:16.514Z,73.2
2018-08-28T05:16:17.192Z,73.0
2018-08-28T05:17:17.870Z,73.5
2018-08-28T05:18:18.552Z,73.1
2018-08-28T05:19:19.271Z,73.5
2018-08-28T05:20:19.908Z,72.8
2018-08-28T05:21:20.590Z,73.4
2018-08-28T05:22:21.269Z,73.0
2018-08-28T05:23:21.947Z,72.9
2018-08-28T05:24:22.628Z,73.0
2018-08-28T05:25:23.310Z,73.1
2018-08-28T05:26:23.985Z,73.3
2018-08-28T05:27:24.680Z,73.1
2018-08-28T05:28:25.390Z,73.1
2018-08-28T05:29:26.104Z,72.8
2018-08-28T05:30:26.762Z,72.8
2018-08-28T05:31:27.465Z,72.8
2018-08-28T05:32:28.146Z,72.9
2018-08-28T05:33:28.822Z,72.6
2018-08-28T05:34:29.504Z,72.8
2018-08-28T05:35:30.182Z,72.6
2018-08-28T05:36:30.861Z,72.4
2018-08-28T05:37:31.541Z,72.3
2018-08-28T05:38:32.219Z,72.1
2018-08-28T05:39:32.897Z,72.0
2018-08-28T05:40:33.575Z,71.3
2018-08-28T05:41:34.258Z,71.3
2018-08-28T05:42:34.979Z,70.9
2018-08-28T05:43:35.658Z,71.4
2018-08-28T05:44:36.338Z,70.7
2018-08-28T05:45:37.018Z,70.8
2018-08-28T05:46:37.699Z,70.4
2018-08-28T05:47:38.377Z,70.6
2018-08-28T05:48:39.056Z,70.3
2018-08-28T05:49:39.779Z,70.0
2018-08-28T05:50:40.454Z,69.9
2018-08-28T05:51:41.136Z,69.9
2018-08-28T05:52:41.814Z,69.7
2018-08-28T05:53:42.496Z,69.8
2018-08-28T05:54:43.177Z,70.1
2018-08-28T05:55:43.862Z,70.4
2018-08-28T05:56:44.540Z,70.5
2018-08-28T05:57:45.225Z,70.5
2018-08-28T05:58:45.901Z,70.3
2018-08-28T05:59:46.584Z,70.5
2018-08-28T06:00:47.266Z,70.6
2018-08-28T06:01:47.945Z,70.5
2018-08-28T06:02:48.628Z,70.7
2018-08-28T06:03:49.308Z,70.3
2018-08-28T06:04:49.991Z,70.3
2018-08-28T06:05:50.732Z,70.0
2018-08-28T06:06:51.443Z,70.0
2018-08-28T06:07:52.124Z,69.5
2018-08-28T06:08:52.932Z,69.8
2018-08-28T06:09:53.530Z,69.3
2018-08-28T06:10:54.212Z,69.8
2018-08-28T06:11:54.892Z,69.3
2018-08-28T06:12:55.574Z,69.1
2018-08-28T06:13:56.255Z,69.1
2018-08-28T06:14:56.940Z,69.0
2018-08-28T06:15:57.661Z,68.4
2018-08-28T06:16:58.342Z,68.6
2018-08-28T06:17:59.023Z,68.1
2018-08-28T06:18:59.705Z,67.8
2018-08-28T06:20:00.385Z,66.9
2018-08-28T06:21:01.068Z,67.1
2018-08-28T06:22:01.748Z,66.8
2018-08-28T06:23:02.488Z,66.9
2018-08-28T06:24:03.116Z,66.4
2018-08-28T06:25:03.794Z,66.6
2018-08-28T06:26:04.476Z,66.1
2018-08-28T06:27:05.156Z,66.0
2018-08-28T06:28:05.883Z,66.2
2018-08-28T06:29:06.563Z,66.2
2018-08-28T06:30:07.244Z,65.7
2018-08-28T06:31:07.926Z,65.7
2018-08-28T06:32:08.608Z,65.5
2018-08-28T06:33:09.289Z,65.1
2018-08-28T06:34:09.974Z,65.3
2018-08-28T06:35:10.657Z,64.7
2018-08-28T06:36:11.334Z,64.7
2018-08-28T06:37:12.036Z,64.3
2018-08-28T06:38:12.697Z,64.2
2018-08-28T06:39:13.380Z,64.2
2018-08-28T06:40:14.062Z,64.5
2018-08-28T06:41:14.745Z,64.2
2018-08-28T06:42:15.425Z,62.8
2018-08-28T06:43:16.108Z,61.7
2018-08-28T06:44:16.835Z,62.2
2018-08-28T06:45:17.518Z,62.2
2018-08-28T06:46:18.200Z,61.8
2018-08-28T06:47:18.889Z,62.8
2018-08-28T06:48:19.565Z,62.4
2018-08-28T06:49:20.246Z,62.0
2018-08-28T06:50:20.929Z,61.9
2018-08-28T06:51:21.609Z,62.0
2018-08-28T06:52:22.291Z,61.9
2018-08-28T06:53:22.974Z,61.4
2018-08-28T06:54:23.656Z,61.3
2018-08-28T06:55:24.345Z,61.5
2018-08-28T06:56:25.027Z,61.3
2018-08-28T06:57:25.708Z,61.1
2018-08-28T06:58:26.392Z,60.2
2018-08-28T06:59:27.080Z,59.9
2018-08-28T07:00:27.761Z,59.1
2018-08-28T07:01:28.446Z,57.3
2018-08-28T07:02:29.200Z,55.5
2018-08-28T07:03:29.811Z,54.6
2018-08-28T07:04:30.496Z,52.6
2018-08-28T07:05:31.178Z,51.1
2018-08-28T07:06:31.861Z,49.7
2018-08-28T07:07:32.546Z,48.7
2018-08-28T07:08:33.229Z,47.7
2018-08-28T07:09:33.911Z,45.9
2018-08-28T07:10:34.597Z,45.5
2018-08-28T07:11:35.280Z,44.9
2018-08-28T07:12:35.965Z,44.2
2018-08-28T07:13:36.648Z,43.3
2018-08-28T07:14:37.333Z,42.5
2018-08-28T07:15:38.019Z,41.4
2018-08-28T07:16:38.704Z,40.9
2018-08-28T07:17:39.398Z,40.0
2018-08-28T07:18:40.128Z,39.4
2018-08-28T07:19:40.785Z,38.9
2018-08-28T07:20:41.495Z,38.8
2018-08-28T07:21:42.179Z,38.6
2018-08-28T07:22:43.066Z,38.0
2018-08-28T07:23:43.752Z,38.3
2018-08-28T07:24:44.439Z,37.5
2018-08-28T07:25:45.280Z,37.0
2018-08-28T07:26:45.812Z,37.3
2018-08-28T07:27:46.502Z,37.3
2018-08-28T07:28:47.184Z,37.0
2018-08-28T07:29:47.872Z,36.7
2018-08-28T07:30:48.558Z,36.4
2018-08-28T07:31:49.358Z,35.6
2018-08-28T07:32:49.933Z,35.7
2018-08-28T07:33:50.619Z,35.7
2018-08-28T07:34:51.305Z,35.6
2018-08-28T07:35:51.993Z,35.6
2018-08-28T07:36:52.682Z,35.5
2018-08-28T07:37:53.376Z,35.7
2018-08-28T07:38:54.059Z,35.7
2018-08-28T07:39:54.743Z,35.0
2018-08-28T07:40:55.432Z,34.4
2018-08-28T07:41:56.118Z,33.7
2018-08-28T07:42:56.857Z,33.6
2018-08-28T07:43:57.492Z,33.7
2018-08-28T07:44:58.180Z,34.5
2018-08-28T07:45:58.867Z,34.4
2018-08-28T07:46:59.556Z,34.2
2018-08-28T07:48:00.244Z,34.5
2018-08-28T07:49:00.931Z,34.7
2018-08-28T07:50:01.620Z,34.8
2018-08-28T07:51:02.309Z,35.0
2018-08-28T07:52:03.043Z,35.3
2018-08-28T07:53:03.779Z,35.5
2018-08-28T07:54:04.466Z,35.6
2018-08-28T07:55:05.158Z,35.1
2018-08-28T07:56:05.892Z,34.9
2018-08-28T07:57:06.579Z,34.5
2018-08-28T07:58:07.272Z,33.6
2018-08-28T07:59:08.000Z,33.4
2018-08-28T08:00:08.708Z,33.2
2018-08-28T08:01:09.423Z,32.6
2018-08-28T08:02:10.112Z,32.4
2018-08-28T08:03:10.843Z,32.1
2018-08-28T08:04:11.531Z,32.6
2018-08-28T08:05:12.222Z,33.2
2018-08-28T08:06:12.910Z,33.5
2018-08-28T08:07:13.598Z,33.5
2018-08-28T08:08:14.288Z,33.3
2018-08-28T08:09:14.976Z,33.0
2018-08-28T08:10:15.715Z,33.1
2018-08-28T08:11:16.400Z,32.7
2018-08-28T08:12:17.132Z,32.3
2018-08-28T08:13:17.821Z,32.3
2018-08-28T08:14:18.512Z,32.5
2018-08-28T08:15:19.199Z,32.4
2018-08-28T08:16:19.891Z,32.4
2018-08-28T08:17:20.583Z,31.9
2018-08-28T08:18:21.311Z,32.4
2018-08-28T08:19:22.002Z,32.8
2018-08-28T08:20:22.691Z,33.1
2018-08-28T08:21:23.381Z,33.5
2018-08-28T08:22:24.131Z,34.5
2018-08-28T08:23:24.760Z,35.1
2018-08-28T08:24:25.457Z,35.1
2018-08-28T08:25:26.182Z,35.5
2018-08-28T08:26:26.869Z,35.8
2018-08-28T08:27:27.560Z,36.4
2018-08-28T08:28:28.250Z,36.2
2018-08-28T08:29:28.937Z,35.7
2018-08-28T08:30:29.627Z,35.8
2018-08-28T08:31:30.314Z,35.5
2018-08-28T08:32:31.004Z,35.7
2018-08-28T08:33:31.695Z,35.8
2018-08-28T08:34:32.381Z,36.1
2018-08-28T08:35:33.071Z,36.0
2018-08-28T08:36:33.761Z,36.4
2018-08-28T08:37:34.449Z,36.2
2018-08-28T08:38:35.138Z,36.2
2018-08-28T08:39:35.828Z,36.4
2018-08-28T08:40:36.516Z,35.6
2018-08-28T08:41:37.204Z,35.6
2018-08-28T08:42:37.892Z,35.0
2018-08-28T08:43:38.581Z,34.9
2018-08-28T08:44:39.269Z,34.6
2018-08-28T08:45:39.959Z,33.9
2018-08-28T08:46:40.646Z,33.5
2018-08-28T08:47:41.332Z,33.0
2018-08-28T08:48:42.020Z,31.8
2018-08-28T08:49:42.741Z,32.2
2018-08-28T08:50:43.440Z,31.0
2018-08-28T08:51:44.128Z,29.8
2018-08-28T08:52:44.818Z,29.5
2018-08-28T08:53:45.508Z,29.0
2018-08-28T08:54:46.205Z,29.2
2018-08-28T08:55:46.885Z,28.9
2018-08-28T08:56:47.618Z,29.3
2018-08-28T08:57:48.306Z,29.1
2018-08-28T08:58:48.994Z,29.2
2018-08-28T08:59:49.682Z,28.9
2018-08-28T09:00:50.372Z,28.7
2018-08-28T09:01:51.059Z,28.7
2018-08-28T09:02:51.749Z,29.2
2018-08-28T09:03:52.436Z,30.9
2018-08-28T09:04:53.125Z,32.0
2018-08-28T09:05:53.819Z,32.3
2018-08-28T09:06:54.501Z,32.1
2018-08-28T09:07:55.189Z,32.3
2018-08-28T09:08:55.878Z,31.8
2018-08-28T09:09:56.565Z,33.2
2018-08-28T09:10:57.253Z,33.8
2018-08-28T09:11:57.941Z,35.0
2018-08-28T09:12:58.629Z,35.5
2018-08-28T09:13:59.315Z,36.1
2018-08-28T09:15:00.004Z,36.1
2018-08-28T09:16:00.691Z,36.2
2018-08-28T09:17:01.383Z,36.5
2018-08-28T09:18:02.068Z,37.0
2018-08-28T09:19:02.754Z,37.2
2018-08-28T09:20:03.442Z,37.4
2018-08-28T09:21:04.129Z,37.7
2018-08-28T09:22:04.818Z,38.5
2018-08-28T09:23:05.504Z,38.5
2018-08-28T09:24:06.192Z,38.3
2018-08-28T09:25:06.879Z,38.3
2018-08-28T09:26:07.565Z,38.3
2018-08-28T09:27:08.254Z,38.7
2018-08-28T09:28:08.941Z,39.1
2018-08-28T09:29:09.627Z,39.6
2018-08-28T09:30:10.315Z,39.5
2018-08-28T09:31:11.048Z,40.2
2018-08-28T09:32:11.690Z,41.0
2018-08-28T09:33:12.374Z,40.9
2018-08-28T09:34:13.060Z,40.7
2018-08-28T09:35:13.748Z,40.2
2018-08-28T09:36:14.436Z,40.1
2018-08-28T09:37:15.123Z,39.9
2018-08-28T09:38:15.855Z,39.8
2018-08-28T09:39:16.538Z,39.7
2018-08-28T09:40:17.267Z,39.5
2018-08-28T09:41:17.952Z,39.8
2018-08-28T09:42:18.638Z,40.3
2018-08-28T09:43:19.324Z,40.7
2018-08-28T09:44:20.009Z,40.9
2018-08-28T09:45:20.700Z,40.5
2018-08-28T09:46:21.382Z,40.8
2018-08-28T09:47:22.068Z,40.3
2018-08-28T09:48:22.777Z,39.8
2018-08-28T09:49:23.441Z,40.5
2018-08-28T09:50:24.237Z,40.4
2018-08-28T09:51:24.817Z,40.0
2018-08-28T09:52:25.503Z,40.5
2018-08-28T09:53:26.191Z,41.2
2018-08-28T09:54:26.873Z,41.4
2018-08-28T09:55:27.559Z,40.5
2018-08-28T09:56:28.289Z,40.9
2018-08-28T09:57:28.931Z,40.9
2018-08-28T09:58:29.616Z,40.9
2018-08-28T09:59:30.305Z,40.7
2018-08-28T10:00:31.033Z,39.7
2018-08-28T10:01:31.721Z,39.2
2018-08-28T10:02:32.405Z,38.6
2018-08-28T10:03:33.093Z,38.6
2018-08-28T10:04:33.855Z,38.7
2018-08-28T10:05:34.518Z,38.6
2018-08-28T10:06:35.155Z,38.4
2018-08-28T10:07:35.845Z,36.7
2018-08-28T10:08:36.532Z,35.2
2018-08-28T10:09:37.219Z,33.3
2018-08-28T10:10:37.915Z,33.0
2018-08-28T10:11:38.594Z,32.1
2018-08-28T10:12:39.327Z,30.9
2018-08-28T10:13:40.020Z,28.8
2018-08-28T10:14:40.702Z,29.0
2018-08-28T10:15:41.391Z,28.8
2018-08-28T10:16:42.079Z,29.3
2018-08-28T10:17:42.767Z,29.4
2018-08-28T10:18:43.506Z,29.4
2018-08-28T10:19:44.192Z,29.4
2018-08-28T10:20:44.883Z,29.6
2018-08-28T10:21:45.570Z,30.0
2018-08-28T10:22:46.324Z,29.0
2018-08-28T10:23:46.946Z,29.2
2018-08-28T10:24:47.634Z,29.4
2018-08-28T10:25:48.320Z,29.4
2018-08-28T10:26:49.013Z,29.6
2018-08-28T10:27:49.696Z,30.0
2018-08-28T10:28:50.382Z,30.6
2018-08-28T10:29:51.127Z,31.0
2018-08-28T10:30:51.758Z,30.8
2018-08-28T10:31:52.445Z,31.2
2018-08-28T10:32:53.136Z,31.7
2018-08-28T10:33:53.820Z,32.1
2018-08-28T10:34:54.507Z,32.8
2018-08-28T10:35:55.195Z,33.2
2018-08-28T10:36:55.882Z,33.8
2018-08-28T10:37:56.569Z,33.6
2018-08-28T10:38:57.255Z,35.3
2018-08-28T10:39:57.942Z,37.1
2018-08-28T10:40:58.628Z,37.1
2018-08-28T10:41:59.314Z,37.5
2018-08-28T10:43:00.001Z,37.8
2018-08-28T10:44:00.687Z,38.2
2018-08-28T10:45:01.373Z,38.4
2018-08-28T10:46:02.109Z,39.0
2018-08-28T10:47:02.782Z,39.0
2018-08-28T10:48:03.471Z,39.6
2018-08-28T10:49:04.159Z,39.4
2018-08-28T10:50:04.887Z,38.9
2018-08-28T10:51:05.573Z,38.9
2018-08-28T10:52:06.260Z,39.0
2018-08-28T10:53:06.944Z,39.3
2018-08-28T10:54:07.631Z,39.5
2018-08-28T10:55:08.317Z,39.0
2018-08-28T10:56:09.004Z,39.5
2018-08-28T10:57:09.689Z,39.6
2018-08-28T10:58:10.374Z,39.7
2018-08-28T10:59:11.060Z,39.6
2018-08-28T11:00:11.746Z,39.8
2018-08-28T11:01:12.478Z,39.0
2018-08-28T11:02:13.208Z,38.8
2018-08-28T11:03:13.893Z,38.7
2018-08-28T11:04:14.582Z,38.7
2018-08-28T11:05:15.264Z,38.6
2018-08-28T11:06:15.949Z,38.1
2018-08-28T11:07:16.632Z,37.6
2018-08-28T11:08:17.319Z,37.4
2018-08-28T11:09:18.005Z,37.7
2018-08-28T11:10:18.689Z,38.4
2018-08-28T11:11:19.379Z,39.6
2018-08-28T11:12:20.126Z,39.0
2018-08-28T11:13:20.834Z,39.1
2018-08-28T11:14:21.567Z,39.0
2018-08-28T11:15:22.294Z,38.7
2018-08-28T11:16:22.985Z,39.6
2018-08-28T11:17:23.665Z,39.6
2018-08-28T11:18:24.350Z,39.5
2018-08-28T11:19:25.036Z,39.6
2018-08-28T11:20:25.719Z,39.4
2018-08-28T11:21:26.404Z,39.3
2018-08-28T11:22:27.123Z,39.2
2018-08-28T11:23:27.811Z,39.4
2018-08-28T11:24:28.496Z,38.4
2018-08-28T11:25:29.181Z,38.7
2018-08-28T11:26:29.865Z,38.4
2018-08-28T11:27:30.550Z,38.5
2018-08-28T11:28:31.234Z,38.5
2018-08-28T11:29:31.919Z,38.5
2018-08-28T11:30:32.651Z,38.1
2018-08-28T11:31:33.381Z,38.3
2018-08-28T11:32:34.065Z,38.1
2018-08-28T11:33:34.751Z,37.6
2018-08-28T11:34:35.438Z,37.2
2018-08-28T11:35:36.189Z,37.1
2018-08-28T11:36:36.843Z,37.3
2018-08-28T11:37:37.531Z,37.2
2018-08-28T11:38:38.215Z,37.2
2018-08-28T11:39:38.900Z,36.8
2018-08-28T11:40:39.587Z,37.0
2018-08-28T11:41:40.270Z,36.4
2018-08-28T11:42:40.998Z,36.4
2018-08-28T11:43:41.685Z,36.0
2018-08-28T11:44:42.370Z,36.3
2018-08-28T11:45:43.054Z,36.0
2018-08-28T11:46:43.784Z,36.2
2018-08-28T11:47:44.469Z,36.4
2018-08-28T11:48:45.202Z,36.4
2018-08-28T11:49:45.929Z,36.1
2018-08-28T11:50:46.614Z,36.0
2018-08-28T11:51:47.650Z,35.8
2018-08-28T11:52:48.274Z,35.4
2018-08-28T11:53:48.960Z,35.9
2018-08-28T11:54:49.646Z,35.9
2018-08-28T11:55:50.331Z,36.7
2018-08-28T11:56:51.017Z,37.2
2018-08-28T11:57:51.700Z,37.2
2018-08-28T11:58:52.387Z,36.9
2018-08-28T11:59:53.071Z,36.6
2018-08-28T12:00:53.757Z,36.6
2018-08-28T12:01:54.501Z,36.4
2018-08-28T12:02:55.127Z,35.9
2018-08-28T12:03:55.812Z,36.1
2018-08-28T12:04:56.566Z,36.1
2018-08-28T12:05:57.232Z,35.9
2018-08-28T12:06:57.932Z,35.9
2018-08-28T12:07:58.604Z,36.0
2018-08-28T12:08:59.290Z,36.4
2018-08-28T12:09:59.977Z,36.1
2018-08-28T12:11:00.662Z,36.3
2018-08-28T12:12:01.347Z,36.7
2018-08-28T12:13:02.113Z,36.5
2018-08-28T12:14:02.721Z,37.0
2018-08-28T12:15:03.447Z,36.9
2018-08-28T12:16:04.173Z,37.0
2018-08-28T12:17:04.861Z,37.2
2018-08-28T12:18:05.546Z,37.2
2018-08-28T12:19:06.231Z,37.2
2018-08-28T12:20:06.916Z,37.4
2018-08-28T12:21:07.627Z,37.3
2018-08-28T12:22:08.323Z,37.2
2018-08-28T12:23:09.028Z,37.2
2018-08-28T12:24:09.739Z,38.1
2018-08-28T12:25:10.423Z,37.8
2018-08-28T12:26:11.152Z,38.1
2018-08-28T12:27:11.839Z,38.5
2018-08-28T12:28:12.523Z,38.5
2018-08-28T12:29:13.207Z,38.6
2018-08-28T12:30:13.896Z,38.5
2018-08-28T12:31:14.577Z,38.2
2018-08-28T12:32:15.262Z,38.2
2018-08-28T12:33:15.946Z,38.3
2018-08-28T12:34:16.630Z,38.2
2018-08-28T12:35:17.314Z,38.4
2018-08-28T12:36:18.000Z,38.8
2018-08-28T12:37:18.755Z,38.7
2018-08-28T12:38:19.404Z,38.8
2018-08-28T12:39:20.087Z,38.9
2018-08-28T12:40:20.772Z,38.7
2018-08-28T12:41:21.465Z,38.3
2018-08-28T12:42:22.185Z,38.3
2018-08-28T12:43:22.876Z,38.4
2018-08-28T12:44:23.554Z,38.4
2018-08-28T12:45:24.237Z,38.5
2018-08-28T12:46:24.922Z,38.4
2018-08-28T12:47:25.606Z,38.4
2018-08-28T12:48:26.301Z,37.6
2018-08-28T12:49:26.978Z,38.2
2018-08-28T12:50:27.658Z,38.3
2018-08-28T12:51:28.456Z,38.3
2018-08-28T12:52:29.026Z,37.8
2018-08-28T12:53:29.710Z,38.0
2018-08-28T12:54:30.438Z,37.4
2018-08-28T12:55:31.123Z,37.0
2018-08-28T12:56:31.808Z,37.3
2018-08-28T12:57:32.490Z,37.0
2018-08-28T12:58:33.258Z,37.3
2018-08-28T12:59:33.895Z,37.2
2018-08-28T13:00:34.605Z,37.4
2018-08-28T13:01:35.264Z,37.6
2018-08-28T13:02:35.950Z,38.0
2018-08-28T13:03:36.632Z,38.1
2018-08-28T13:04:37.322Z,37.8
2018-08-28T13:05:38.002Z,37.7
2018-08-28T13:06:38.686Z,38.3
2018-08-28T13:07:39.371Z,38.0
2018-08-28T13:08:40.107Z,38.2
2018-08-28T13:09:40.792Z,38.2
2018-08-28T13:10:41.476Z,38.1
2018-08-28T13:11:42.159Z,38.1
2018-08-28T13:12:42.853Z,38.0
2018-08-28T13:13:43.530Z,38.2
2018-08-28T13:14:44.326Z,38.3
2018-08-28T13:15:44.899Z,38.5
2018-08-28T13:16:45.584Z,38.7
2018-08-28T13:17:46.268Z,38.6
2018-08-28T13:18:47.003Z,38.3
2018-08-28T13:19:47.734Z,38.5
2018-08-28T13:20:48.408Z,38.4
2018-08-28T13:21:49.093Z,38.4
2018-08-28T13:22:49.778Z,38.4
2018-08-28T13:23:50.461Z,38.6
2018-08-28T13:24:51.145Z,38.5
2018-08-28T13:25:51.917Z,38.2
2018-08-28T13:26:52.518Z,38.2
2018-08-28T13:27:53.198Z,37.6